sensor_id;sensor_type;location;lat;lon;timestamp;P1;durP1;ratioP1;P2;durP2;ratioP2
16075;SDS011;8142;48.242;11.644;2022-07-21T00:01:50;8.57;;;4.30;;
16075;SDS011;8142;48.242;11.644;2022-07-21T00:04:17;8.87;;;4.13;;
16075;SDS011;8142;48.242;11.644;2022-07-21T00:06:44;7.57;;;4.10;;
16075;SDS011;8142;48.242;11.644;2022-07-21T00:09:11;7.97;;;4.23;;
16075;SDS011;8142;48.242;11.644;2022-07-21T00:11:38;8.10;;;4.37;;
16075;SDS011;8142;48.242;11.644;2022-07-21T00:14:05;5.97;;;4.27;;
16075;SDS011;8142;48.242;11.644;2022-07-21T00:16:33;8.60;;;3.90;;
16075;SDS011;8142;48.242;11.644;2022-07-21T00:18:59;10.00;;;4.47;;
16075;SDS011;8142;48.242;11.644;2022-07-21T00:21:29;7.40;;;4.23;;
16075;SDS011;8142;48.242;11.644;2022-07-21T00:23:55;7.03;;;4.07;;
16075;SDS011;8142;48.242;11.644;2022-07-21T00:26:21;5.70;;;3.87;;
16075;SDS011;8142;48.242;11.644;2022-07-21T00:28:47;7.33;;;4.40;;
16075;SDS011;8142;48.242;11.644;2022-07-21T00:31:14;5.47;;;4.20;;
16075;SDS011;8142;48.242;11.644;2022-07-21T00:33:39;6.43;;;4.40;;
16075;SDS011;8142;48.242;11.644;2022-07-21T00:36:05;8.10;;;4.63;;
16075;SDS011;8142;48.242;11.644;2022-07-21T00:38:31;7.57;;;4.30;;
16075;SDS011;8142;48.242;11.644;2022-07-21T00:40:57;5.77;;;4.30;;
16075;SDS011;8142;48.242;11.644;2022-07-21T00:43:23;7.80;;;4.30;;
16075;SDS011;8142;48.242;11.644;2022-07-21T00:45:51;6.10;;;4.23;;
16075;SDS011;8142;48.242;11.644;2022-07-21T00:48:18;8.03;;;4.50;;
16075;SDS011;8142;48.242;11.644;2022-07-21T00:50:44;7.43;;;4.27;;
16075;SDS011;8142;48.242;11.644;2022-07-21T00:53:10;6.13;;;4.23;;
16075;SDS011;8142;48.242;11.644;2022-07-21T00:55:36;5.90;;;4.40;;
16075;SDS011;8142;48.242;11.644;2022-07-21T00:58:02;8.43;;;4.43;;
16075;SDS011;8142;48.242;11.644;2022-07-21T01:00:29;4.87;;;4.33;;
16075;SDS011;8142;48.242;11.644;2022-07-21T01:02:56;7.27;;;4.47;;
16075;SDS011;8142;48.242;11.644;2022-07-21T01:05:23;6.17;;;4.67;;
16075;SDS011;8142;48.242;11.644;2022-07-21T01:07:51;6.30;;;4.53;;
16075;SDS011;8142;48.242;11.644;2022-07-21T01:10:19;4.60;;;4.17;;
16075;SDS011;8142;48.242;11.644;2022-07-21T01:12:46;5.13;;;4.20;;
16075;SDS011;8142;48.242;11.644;2022-07-21T01:15:13;5.13;;;4.23;;
16075;SDS011;8142;48.242;11.644;2022-07-21T01:17:41;5.77;;;4.40;;
16075;SDS011;8142;48.242;11.644;2022-07-21T01:20:09;6.63;;;4.60;;
16075;SDS011;8142;48.242;11.644;2022-07-21T01:22:37;6.73;;;4.47;;
16075;SDS011;8142;48.242;11.644;2022-07-21T01:25:05;6.10;;;4.60;;
16075;SDS011;8142;48.242;11.644;2022-07-21T01:27:32;4.90;;;4.40;;
16075;SDS011;8142;48.242;11.644;2022-07-21T01:29:58;5.20;;;4.50;;
16075;SDS011;8142;48.242;11.644;2022-07-21T01:32:24;7.60;;;4.60;;
16075;SDS011;8142;48.242;11.644;2022-07-21T01:34:50;6.83;;;4.77;;
16075;SDS011;8142;48.242;11.644;2022-07-21T01:37:20;6.50;;;4.63;;
16075;SDS011;8142;48.242;11.644;2022-07-21T01:39:48;7.03;;;4.80;;
16075;SDS011;8142;48.242;11.644;2022-07-21T01:42:33;5.80;;;5.00;;
16075;SDS011;8142;48.242;11.644;2022-07-21T01:45:00;5.80;;;4.97;;
16075;SDS011;8142;48.242;11.644;2022-07-21T01:47:26;6.97;;;5.30;;
16075;SDS011;8142;48.242;11.644;2022-07-21T01:49:52;5.70;;;5.10;;
16075;SDS011;8142;48.242;11.644;2022-07-21T01:52:17;6.20;;;5.20;;
16075;SDS011;8142;48.242;11.644;2022-07-21T01:54:43;6.77;;;5.50;;
16075;SDS011;8142;48.242;11.644;2022-07-21T01:57:09;6.30;;;5.17;;
16075;SDS011;8142;48.242;11.644;2022-07-21T01:59:35;5.37;;;4.80;;
16075;SDS011;8142;48.242;11.644;2022-07-21T02:02:01;6.93;;;5.60;;
16075;SDS011;8142;48.242;11.644;2022-07-21T02:04:27;7.53;;;5.53;;
16075;SDS011;8142;48.242;11.644;2022-07-21T02:06:54;7.03;;;5.73;;
16075;SDS011;8142;48.242;11.644;2022-07-21T02:09:20;6.97;;;5.37;;
16075;SDS011;8142;48.242;11.644;2022-07-21T02:11:46;8.77;;;5.70;;
16075;SDS011;8142;48.242;11.644;2022-07-21T02:14:12;7.93;;;5.13;;
16075;SDS011;8142;48.242;11.644;2022-07-21T02:16:37;7.03;;;5.60;;
16075;SDS011;8142;48.242;11.644;2022-07-21T02:19:03;5.97;;;5.37;;
16075;SDS011;8142;48.242;11.644;2022-07-21T02:21:29;7.47;;;5.90;;
16075;SDS011;8142;48.242;11.644;2022-07-21T02:23:55;7.07;;;5.67;;
16075;SDS011;8142;48.242;11.644;2022-07-21T02:26:21;7.77;;;6.00;;
16075;SDS011;8142;48.242;11.644;2022-07-21T02:28:47;7.53;;;6.13;;
16075;SDS011;8142;48.242;11.644;2022-07-21T02:31:13;6.80;;;5.87;;
16075;SDS011;8142;48.242;11.644;2022-07-21T02:33:39;8.37;;;5.60;;
16075;SDS011;8142;48.242;11.644;2022-07-21T02:36:05;6.43;;;5.50;;
16075;SDS011;8142;48.242;11.644;2022-07-21T02:38:31;7.87;;;5.80;;
16075;SDS011;8142;48.242;11.644;2022-07-21T02:40:57;6.17;;;5.53;;
16075;SDS011;8142;48.242;11.644;2022-07-21T02:43:23;9.40;;;6.13;;
16075;SDS011;8142;48.242;11.644;2022-07-21T02:45:49;7.53;;;5.90;;
16075;SDS011;8142;48.242;11.644;2022-07-21T02:48:15;7.63;;;6.23;;
16075;SDS011;8142;48.242;11.644;2022-07-21T02:50:42;7.27;;;5.93;;
16075;SDS011;8142;48.242;11.644;2022-07-21T02:53:10;15.60;;;6.80;;
16075;SDS011;8142;48.242;11.644;2022-07-21T02:55:43;6.97;;;5.97;;
16075;SDS011;8142;48.242;11.644;2022-07-21T03:00:37;8.27;;;5.70;;
16075;SDS011;8142;48.242;11.644;2022-07-21T03:03:17;6.63;;;5.80;;
16075;SDS011;8142;48.242;11.644;2022-07-21T03:05:44;6.30;;;5.10;;
16075;SDS011;8142;48.242;11.644;2022-07-21T03:08:10;7.33;;;5.60;;
16075;SDS011;8142;48.242;11.644;2022-07-21T03:10:37;6.60;;;5.13;;
16075;SDS011;8142;48.242;11.644;2022-07-21T03:13:03;6.70;;;5.60;;
16075;SDS011;8142;48.242;11.644;2022-07-21T03:15:30;6.30;;;5.20;;
16075;SDS011;8142;48.242;11.644;2022-07-21T03:17:57;6.03;;;5.10;;
16075;SDS011;8142;48.242;11.644;2022-07-21T03:20:27;8.67;;;5.50;;
16075;SDS011;8142;48.242;11.644;2022-07-21T03:22:56;8.93;;;5.60;;
16075;SDS011;8142;48.242;11.644;2022-07-21T03:25:22;7.10;;;5.80;;
16075;SDS011;8142;48.242;11.644;2022-07-21T03:27:49;7.67;;;5.40;;
16075;SDS011;8142;48.242;11.644;2022-07-21T03:30:15;7.33;;;6.00;;
16075;SDS011;8142;48.242;11.644;2022-07-21T03:32:42;8.50;;;6.73;;
16075;SDS011;8142;48.242;11.644;2022-07-21T03:35:09;7.83;;;6.03;;
16075;SDS011;8142;48.242;11.644;2022-07-21T03:37:43;7.93;;;6.57;;
16075;SDS011;8142;48.242;11.644;2022-07-21T03:40:14;8.57;;;6.67;;
16075;SDS011;8142;48.242;11.644;2022-07-21T03:42:43;8.20;;;6.80;;
16075;SDS011;8142;48.242;11.644;2022-07-21T03:45:09;9.50;;;6.67;;
16075;SDS011;8142;48.242;11.644;2022-07-21T03:47:36;8.07;;;6.70;;
16075;SDS011;8142;48.242;11.644;2022-07-21T03:50:03;9.50;;;6.63;;
16075;SDS011;8142;48.242;11.644;2022-07-21T03:52:30;8.33;;;6.27;;
16075;SDS011;8142;48.242;11.644;2022-07-21T03:54:55;11.40;;;6.80;;
16075;SDS011;8142;48.242;11.644;2022-07-21T03:57:35;7.20;;;6.17;;
16075;SDS011;8142;48.242;11.644;2022-07-21T04:00:02;6.97;;;6.20;;
16075;SDS011;8142;48.242;11.644;2022-07-21T04:02:30;8.03;;;6.40;;
16075;SDS011;8142;48.242;11.644;2022-07-21T04:04:56;6.83;;;6.13;;
16075;SDS011;8142;48.242;11.644;2022-07-21T04:07:22;8.70;;;6.90;;
16075;SDS011;8142;48.242;11.644;2022-07-21T04:09:48;7.97;;;6.53;;
16075;SDS011;8142;48.242;11.644;2022-07-21T04:12:13;10.63;;;7.20;;
16075;SDS011;8142;48.242;11.644;2022-07-21T04:14:39;8.50;;;6.87;;
16075;SDS011;8142;48.242;11.644;2022-07-21T04:17:05;9.10;;;7.20;;
16075;SDS011;8142;48.242;11.644;2022-07-21T04:19:31;8.90;;;6.90;;
16075;SDS011;8142;48.242;11.644;2022-07-21T04:21:57;7.93;;;7.13;;
16075;SDS011;8142;48.242;11.644;2022-07-21T04:24:23;10.30;;;7.23;;
16075;SDS011;8142;48.242;11.644;2022-07-21T04:26:49;8.27;;;7.43;;
16075;SDS011;8142;48.242;11.644;2022-07-21T04:29:15;9.50;;;7.10;;
16075;SDS011;8142;48.242;11.644;2022-07-21T04:31:41;8.77;;;7.67;;
16075;SDS011;8142;48.242;11.644;2022-07-21T04:34:06;9.00;;;8.10;;
16075;SDS011;8142;48.242;11.644;2022-07-21T04:36:32;10.00;;;8.10;;
16075;SDS011;8142;48.242;11.644;2022-07-21T04:38:58;9.10;;;8.17;;
16075;SDS011;8142;48.242;11.644;2022-07-21T04:41:24;10.07;;;8.10;;
16075;SDS011;8142;48.242;11.644;2022-07-21T04:43:53;12.47;;;8.87;;
16075;SDS011;8142;48.242;11.644;2022-07-21T04:46:19;11.53;;;8.97;;
16075;SDS011;8142;48.242;11.644;2022-07-21T04:48:45;10.10;;;8.30;;
16075;SDS011;8142;48.242;11.644;2022-07-21T04:51:11;10.53;;;9.20;;
16075;SDS011;8142;48.242;11.644;2022-07-21T04:53:36;10.77;;;9.53;;
16075;SDS011;8142;48.242;11.644;2022-07-21T04:56:02;11.20;;;8.67;;
16075;SDS011;8142;48.242;11.644;2022-07-21T04:58:29;12.80;;;9.40;;
16075;SDS011;8142;48.242;11.644;2022-07-21T05:00:55;11.97;;;9.47;;
16075;SDS011;8142;48.242;11.644;2022-07-21T05:03:20;14.43;;;10.03;;
16075;SDS011;8142;48.242;11.644;2022-07-21T05:05:46;11.20;;;8.90;;
16075;SDS011;8142;48.242;11.644;2022-07-21T05:08:13;12.83;;;9.60;;
16075;SDS011;8142;48.242;11.644;2022-07-21T05:10:38;12.10;;;9.27;;
16075;SDS011;8142;48.242;11.644;2022-07-21T05:13:04;6.50;;;5.90;;
16075;SDS011;8142;48.242;11.644;2022-07-21T05:15:30;8.13;;;7.30;;
16075;SDS011;8142;48.242;11.644;2022-07-21T05:17:56;7.77;;;6.70;;
16075;SDS011;8142;48.242;11.644;2022-07-21T05:20:22;9.47;;;7.93;;
16075;SDS011;8142;48.242;11.644;2022-07-21T05:22:48;11.03;;;9.60;;
16075;SDS011;8142;48.242;11.644;2022-07-21T05:25:14;11.43;;;10.17;;
16075;SDS011;8142;48.242;11.644;2022-07-21T05:27:39;12.23;;;9.73;;
16075;SDS011;8142;48.242;11.644;2022-07-21T05:30:05;11.20;;;9.77;;
16075;SDS011;8142;48.242;11.644;2022-07-21T05:32:32;12.70;;;9.57;;
16075;SDS011;8142;48.242;11.644;2022-07-21T05:34:58;11.87;;;10.03;;
16075;SDS011;8142;48.242;11.644;2022-07-21T05:37:24;11.07;;;9.87;;
16075;SDS011;8142;48.242;11.644;2022-07-21T05:39:50;9.37;;;8.30;;
16075;SDS011;8142;48.242;11.644;2022-07-21T05:42:16;10.33;;;9.20;;
16075;SDS011;8142;48.242;11.644;2022-07-21T05:44:43;10.03;;;7.80;;
16075;SDS011;8142;48.242;11.644;2022-07-21T05:47:08;9.87;;;8.23;;
16075;SDS011;8142;48.242;11.644;2022-07-21T05:49:34;11.30;;;9.20;;
16075;SDS011;8142;48.242;11.644;2022-07-21T05:52:00;9.77;;;8.53;;
16075;SDS011;8142;48.242;11.644;2022-07-21T05:54:26;10.33;;;8.70;;
16075;SDS011;8142;48.242;11.644;2022-07-21T05:56:52;12.63;;;9.27;;
16075;SDS011;8142;48.242;11.644;2022-07-21T05:59:18;15.93;;;12.10;;
16075;SDS011;8142;48.242;11.644;2022-07-21T06:01:43;12.07;;;8.87;;
16075;SDS011;8142;48.242;11.644;2022-07-21T06:04:09;11.50;;;9.70;;
16075;SDS011;8142;48.242;11.644;2022-07-21T06:06:35;12.97;;;9.93;;
16075;SDS011;8142;48.242;11.644;2022-07-21T06:09:01;16.20;;;11.27;;
16075;SDS011;8142;48.242;11.644;2022-07-21T06:11:27;16.33;;;11.70;;
16075;SDS011;8142;48.242;11.644;2022-07-21T06:13:53;19.10;;;12.80;;
16075;SDS011;8142;48.242;11.644;2022-07-21T06:16:19;20.23;;;12.27;;
16075;SDS011;8142;48.242;11.644;2022-07-21T06:18:45;17.23;;;11.27;;
16075;SDS011;8142;48.242;11.644;2022-07-21T06:21:11;15.07;;;11.03;;
16075;SDS011;8142;48.242;11.644;2022-07-21T06:23:37;14.40;;;10.67;;
16075;SDS011;8142;48.242;11.644;2022-07-21T06:26:02;16.97;;;10.90;;
16075;SDS011;8142;48.242;11.644;2022-07-21T06:28:28;15.43;;;11.03;;
16075;SDS011;8142;48.242;11.644;2022-07-21T06:30:54;18.33;;;10.67;;
16075;SDS011;8142;48.242;11.644;2022-07-21T06:33:20;15.47;;;9.37;;
16075;SDS011;8142;48.242;11.644;2022-07-21T06:35:46;13.30;;;9.67;;
16075;SDS011;8142;48.242;11.644;2022-07-21T06:38:12;10.60;;;9.40;;
16075;SDS011;8142;48.242;11.644;2022-07-21T06:40:38;10.60;;;9.03;;
16075;SDS011;8142;48.242;11.644;2022-07-21T06:43:04;12.90;;;9.77;;
16075;SDS011;8142;48.242;11.644;2022-07-21T06:45:30;11.87;;;9.97;;
16075;SDS011;8142;48.242;11.644;2022-07-21T06:48:05;14.07;;;9.87;;
16075;SDS011;8142;48.242;11.644;2022-07-21T06:50:32;12.40;;;9.70;;
16075;SDS011;8142;48.242;11.644;2022-07-21T06:52:59;11.33;;;9.83;;
16075;SDS011;8142;48.242;11.644;2022-07-21T06:55:24;12.13;;;10.43;;
16075;SDS011;8142;48.242;11.644;2022-07-21T06:57:50;12.57;;;10.30;;
16075;SDS011;8142;48.242;11.644;2022-07-21T07:00:16;11.20;;;9.93;;
16075;SDS011;8142;48.242;11.644;2022-07-21T07:02:42;11.40;;;10.03;;
16075;SDS011;8142;48.242;11.644;2022-07-21T07:05:08;12.20;;;9.90;;
16075;SDS011;8142;48.242;11.644;2022-07-21T07:07:34;12.43;;;9.80;;
16075;SDS011;8142;48.242;11.644;2022-07-21T07:10:00;12.33;;;9.80;;
16075;SDS011;8142;48.242;11.644;2022-07-21T07:12:28;13.37;;;9.50;;
16075;SDS011;8142;48.242;11.644;2022-07-21T07:14:54;11.73;;;9.77;;
16075;SDS011;8142;48.242;11.644;2022-07-21T07:17:19;11.57;;;9.00;;
16075;SDS011;8142;48.242;11.644;2022-07-21T07:19:46;11.40;;;8.70;;
16075;SDS011;8142;48.242;11.644;2022-07-21T07:22:13;11.77;;;9.00;;
16075;SDS011;8142;48.242;11.644;2022-07-21T07:24:39;12.90;;;9.57;;
16075;SDS011;8142;48.242;11.644;2022-07-21T07:27:05;12.43;;;10.07;;
16075;SDS011;8142;48.242;11.644;2022-07-21T07:29:31;10.20;;;9.10;;
16075;SDS011;8142;48.242;11.644;2022-07-21T07:31:57;11.93;;;9.60;;
16075;SDS011;8142;48.242;11.644;2022-07-21T07:34:23;14.37;;;9.97;;
16075;SDS011;8142;48.242;11.644;2022-07-21T07:36:49;12.17;;;9.90;;
16075;SDS011;8142;48.242;11.644;2022-07-21T07:39:15;11.50;;;9.60;;
16075;SDS011;8142;48.242;11.644;2022-07-21T07:41:41;10.80;;;9.70;;
16075;SDS011;8142;48.242;11.644;2022-07-21T07:44:09;14.00;;;10.27;;
16075;SDS011;8142;48.242;11.644;2022-07-21T07:46:35;10.03;;;9.00;;
16075;SDS011;8142;48.242;11.644;2022-07-21T07:49:01;10.47;;;8.53;;
16075;SDS011;8142;48.242;11.644;2022-07-21T07:51:27;11.83;;;9.70;;
16075;SDS011;8142;48.242;11.644;2022-07-21T07:53:53;12.07;;;10.07;;
16075;SDS011;8142;48.242;11.644;2022-07-21T07:56:19;11.53;;;9.60;;
16075;SDS011;8142;48.242;11.644;2022-07-21T07:58:45;12.23;;;10.27;;
16075;SDS011;8142;48.242;11.644;2022-07-21T08:01:11;11.77;;;9.90;;
16075;SDS011;8142;48.242;11.644;2022-07-21T08:03:37;11.33;;;10.00;;
16075;SDS011;8142;48.242;11.644;2022-07-21T08:06:03;14.47;;;10.17;;
16075;SDS011;8142;48.242;11.644;2022-07-21T08:08:31;11.53;;;10.07;;
16075;SDS011;8142;48.242;11.644;2022-07-21T08:10:58;14.70;;;10.43;;
16075;SDS011;8142;48.242;11.644;2022-07-21T08:13:24;11.10;;;9.87;;
16075;SDS011;8142;48.242;11.644;2022-07-21T08:15:50;13.53;;;9.77;;
16075;SDS011;8142;48.242;11.644;2022-07-21T08:18:16;9.70;;;8.43;;
16075;SDS011;8142;48.242;11.644;2022-07-21T08:20:43;10.47;;;8.17;;
16075;SDS011;8142;48.242;11.644;2022-07-21T08:23:10;11.43;;;9.77;;
16075;SDS011;8142;48.242;11.644;2022-07-21T08:25:36;11.83;;;10.27;;
16075;SDS011;8142;48.242;11.644;2022-07-21T08:28:02;11.50;;;10.00;;
16075;SDS011;8142;48.242;11.644;2022-07-21T08:30:28;14.70;;;10.50;;
16075;SDS011;8142;48.242;11.644;2022-07-21T08:32:54;13.20;;;10.00;;
16075;SDS011;8142;48.242;11.644;2022-07-21T08:35:20;13.13;;;9.87;;
16075;SDS011;8142;48.242;11.644;2022-07-21T08:37:53;15.03;;;9.63;;
16075;SDS011;8142;48.242;11.644;2022-07-21T08:40:22;12.73;;;9.77;;
16075;SDS011;8142;48.242;11.644;2022-07-21T08:42:48;14.83;;;10.07;;
16075;SDS011;8142;48.242;11.644;2022-07-21T08:45:15;10.30;;;9.20;;
16075;SDS011;8142;48.242;11.644;2022-07-21T08:47:41;10.87;;;8.70;;
16075;SDS011;8142;48.242;11.644;2022-07-21T08:50:08;10.70;;;8.67;;
16075;SDS011;8142;48.242;11.644;2022-07-21T08:52:34;12.93;;;10.33;;
16075;SDS011;8142;48.242;11.644;2022-07-21T08:55:00;10.27;;;8.97;;
16075;SDS011;8142;48.242;11.644;2022-07-21T08:57:27;11.50;;;9.47;;
16075;SDS011;8142;48.242;11.644;2022-07-21T08:59:53;11.80;;;9.07;;
16075;SDS011;8142;48.242;11.644;2022-07-21T09:02:29;10.13;;;8.77;;
16075;SDS011;8142;48.242;11.644;2022-07-21T09:04:56;9.40;;;8.50;;
16075;SDS011;8142;48.242;11.644;2022-07-21T09:07:23;10.30;;;9.20;;
16075;SDS011;8142;48.242;11.644;2022-07-21T09:09:59;11.47;;;9.17;;
16075;SDS011;8142;48.242;11.644;2022-07-21T09:12:27;9.20;;;8.20;;
16075;SDS011;8142;48.242;11.644;2022-07-21T09:15:15;10.00;;;9.00;;
16075;SDS011;8142;48.242;11.644;2022-07-21T09:17:44;9.87;;;7.63;;
16075;SDS011;8142;48.242;11.644;2022-07-21T09:20:23;9.33;;;7.87;;
16075;SDS011;8142;48.242;11.644;2022-07-21T09:25:37;11.13;;;9.30;;
16075;SDS011;8142;48.242;11.644;2022-07-21T09:28:12;10.17;;;9.13;;
16075;SDS011;8142;48.242;11.644;2022-07-21T09:31:25;9.67;;;8.70;;
16075;SDS011;8142;48.242;11.644;2022-07-21T09:33:38;12.60;;;10.10;;
16075;SDS011;8142;48.242;11.644;2022-07-21T09:38:35;12.77;;;9.37;;
16075;SDS011;8142;48.242;11.644;2022-07-21T09:41:08;10.53;;;9.27;;
16075;SDS011;8142;48.242;11.644;2022-07-21T09:43:42;12.70;;;9.63;;
16075;SDS011;8142;48.242;11.644;2022-07-21T09:46:15;10.97;;;9.80;;
16075;SDS011;8142;48.242;11.644;2022-07-21T09:48:45;9.67;;;8.20;;
16075;SDS011;8142;48.242;11.644;2022-07-21T09:51:22;13.30;;;9.00;;
16075;SDS011;8142;48.242;11.644;2022-07-21T09:53:53;11.40;;;10.27;;
16075;SDS011;8142;48.242;11.644;2022-07-21T09:56:30;11.93;;;9.77;;
16075;SDS011;8142;48.242;11.644;2022-07-21T09:58:58;11.53;;;10.13;;
16075;SDS011;8142;48.242;11.644;2022-07-21T10:01:26;13.17;;;9.70;;
16075;SDS011;8142;48.242;11.644;2022-07-21T10:03:53;11.87;;;10.07;;
16075;SDS011;8142;48.242;11.644;2022-07-21T10:06:23;12.27;;;10.37;;
16075;SDS011;8142;48.242;11.644;2022-07-21T10:08:51;14.07;;;10.27;;
16075;SDS011;8142;48.242;11.644;2022-07-21T10:11:20;11.50;;;10.10;;
16075;SDS011;8142;48.242;11.644;2022-07-21T10:13:47;11.10;;;9.93;;
16075;SDS011;8142;48.242;11.644;2022-07-21T10:16:14;11.27;;;10.07;;
16075;SDS011;8142;48.242;11.644;2022-07-21T10:18:51;8.93;;;8.03;;
16075;SDS011;8142;48.242;11.644;2022-07-21T10:24:33;13.27;;;10.37;;
16075;SDS011;8142;48.242;11.644;2022-07-21T10:27:06;11.43;;;10.20;;
16075;SDS011;8142;48.242;11.644;2022-07-21T10:32:13;12.10;;;10.33;;
16075;SDS011;8142;48.242;11.644;2022-07-21T10:34:44;14.03;;;10.57;;
16075;SDS011;8142;48.242;11.644;2022-07-21T10:37:11;12.27;;;10.23;;
16075;SDS011;8142;48.242;11.644;2022-07-21T10:40:51;12.57;;;10.67;;
16075;SDS011;8142;48.242;11.644;2022-07-21T10:45:31;11.27;;;9.93;;
16075;SDS011;8142;48.242;11.644;2022-07-21T10:47:57;9.57;;;8.60;;
16075;SDS011;8142;48.242;11.644;2022-07-21T10:50:33;9.83;;;8.57;;
16075;SDS011;8142;48.242;11.644;2022-07-21T10:53:03;12.63;;;11.07;;
16075;SDS011;8142;48.242;11.644;2022-07-21T10:55:30;12.27;;;10.40;;
16075;SDS011;8142;48.242;11.644;2022-07-21T10:58:13;15.37;;;11.00;;
16075;SDS011;8142;48.242;11.644;2022-07-21T11:00:49;12.13;;;10.23;;
16075;SDS011;8142;48.242;11.644;2022-07-21T11:03:27;15.33;;;11.33;;
16075;SDS011;8142;48.242;11.644;2022-07-21T11:08:43;14.87;;;11.40;;
16075;SDS011;8142;48.242;11.644;2022-07-21T11:11:14;13.47;;;12.07;;
16075;SDS011;8142;48.242;11.644;2022-07-21T11:21:55;12.13;;;10.63;;
16075;SDS011;8142;48.242;11.644;2022-07-21T11:24:23;13.13;;;11.23;;
16075;SDS011;8142;48.242;11.644;2022-07-21T11:26:57;16.33;;;11.40;;
16075;SDS011;8142;48.242;11.644;2022-07-21T11:29:25;11.60;;;10.17;;
16075;SDS011;8142;48.242;11.644;2022-07-21T11:31:52;12.77;;;10.90;;
16075;SDS011;8142;48.242;11.644;2022-07-21T11:34:18;11.80;;;10.60;;
16075;SDS011;8142;48.242;11.644;2022-07-21T11:36:45;14.83;;;10.83;;
16075;SDS011;8142;48.242;11.644;2022-07-21T11:39:12;13.60;;;10.47;;
16075;SDS011;8142;48.242;11.644;2022-07-21T11:41:41;13.23;;;10.67;;
16075;SDS011;8142;48.242;11.644;2022-07-21T11:44:08;12.10;;;10.80;;
16075;SDS011;8142;48.242;11.644;2022-07-21T11:46:48;12.50;;;10.60;;
16075;SDS011;8142;48.242;11.644;2022-07-21T11:49:16;9.73;;;8.50;;
16075;SDS011;8142;48.242;11.644;2022-07-21T11:51:47;11.00;;;9.80;;
16075;SDS011;8142;48.242;11.644;2022-07-21T11:54:24;11.27;;;10.07;;
16075;SDS011;8142;48.242;11.644;2022-07-21T11:56:50;13.47;;;10.50;;
16075;SDS011;8142;48.242;11.644;2022-07-21T11:59:17;11.93;;;10.50;;
16075;SDS011;8142;48.242;11.644;2022-07-21T12:01:50;12.33;;;11.03;;
16075;SDS011;8142;48.242;11.644;2022-07-21T12:04:35;13.97;;;11.50;;
16075;SDS011;8142;48.242;11.644;2022-07-21T12:07:24;12.40;;;10.70;;
16075;SDS011;8142;48.242;11.644;2022-07-21T12:09:55;12.83;;;10.70;;
16075;SDS011;8142;48.242;11.644;2022-07-21T12:12:31;14.70;;;11.23;;
16075;SDS011;8142;48.242;11.644;2022-07-21T12:17:49;10.27;;;9.27;;
16075;SDS011;8142;48.242;11.644;2022-07-21T12:20:24;9.73;;;8.70;;
16075;SDS011;8142;48.242;11.644;2022-07-21T12:23:20;12.80;;;10.43;;
16075;SDS011;8142;48.242;11.644;2022-07-21T12:25:48;12.27;;;10.80;;
16075;SDS011;8142;48.242;11.644;2022-07-21T12:28:15;12.23;;;10.93;;
16075;SDS011;8142;48.242;11.644;2022-07-21T12:30:42;11.57;;;10.13;;
16075;SDS011;8142;48.242;11.644;2022-07-21T12:35:56;11.37;;;10.17;;
16075;SDS011;8142;48.242;11.644;2022-07-21T12:38:35;13.83;;;10.63;;
16075;SDS011;8142;48.242;11.644;2022-07-21T12:41:11;16.53;;;10.93;;
16075;SDS011;8142;48.242;11.644;2022-07-21T12:43:41;14.73;;;10.57;;
16075;SDS011;8142;48.242;11.644;2022-07-21T12:48:37;9.33;;;8.33;;
16075;SDS011;8142;48.242;11.644;2022-07-21T12:51:12;9.47;;;8.53;;
16075;SDS011;8142;48.242;11.644;2022-07-21T12:53:47;13.03;;;10.00;;
16075;SDS011;8142;48.242;11.644;2022-07-21T12:56:16;13.07;;;9.90;;
16075;SDS011;8142;48.242;11.644;2022-07-21T12:58:44;11.50;;;9.53;;
16075;SDS011;8142;48.242;11.644;2022-07-21T13:01:11;11.63;;;9.47;;
16075;SDS011;8142;48.242;11.644;2022-07-21T13:03:37;11.83;;;9.37;;
16075;SDS011;8142;48.242;11.644;2022-07-21T13:06:04;11.83;;;9.20;;
16075;SDS011;8142;48.242;11.644;2022-07-21T13:08:32;12.37;;;9.47;;
16075;SDS011;8142;48.242;11.644;2022-07-21T13:10:59;10.10;;;9.07;;
16075;SDS011;8142;48.242;11.644;2022-07-21T13:13:25;11.90;;;9.43;;
16075;SDS011;8142;48.242;11.644;2022-07-21T13:15:52;11.30;;;9.83;;
16075;SDS011;8142;48.242;11.644;2022-07-21T13:18:19;10.17;;;8.40;;
16075;SDS011;8142;48.242;11.644;2022-07-21T13:20:45;11.57;;;8.77;;
16075;SDS011;8142;48.242;11.644;2022-07-21T13:23:10;13.00;;;9.50;;
16075;SDS011;8142;48.242;11.644;2022-07-21T13:25:36;11.50;;;9.37;;
16075;SDS011;8142;48.242;11.644;2022-07-21T13:28:02;11.70;;;9.97;;
16075;SDS011;8142;48.242;11.644;2022-07-21T13:30:28;11.23;;;9.50;;
16075;SDS011;8142;48.242;11.644;2022-07-21T13:32:55;13.20;;;9.87;;
16075;SDS011;8142;48.242;11.644;2022-07-21T13:35:21;10.70;;;9.50;;
16075;SDS011;8142;48.242;11.644;2022-07-21T13:37:46;10.73;;;9.63;;
16075;SDS011;8142;48.242;11.644;2022-07-21T13:40:12;11.20;;;9.67;;
16075;SDS011;8142;48.242;11.644;2022-07-21T13:42:38;11.20;;;9.97;;
16075;SDS011;8142;48.242;11.644;2022-07-21T13:45:04;10.83;;;9.70;;
16075;SDS011;8142;48.242;11.644;2022-07-21T13:47:33;10.97;;;9.20;;
16075;SDS011;8142;48.242;11.644;2022-07-21T13:49:59;10.43;;;8.80;;
16075;SDS011;8142;48.242;11.644;2022-07-21T13:52:24;10.43;;;9.33;;
16075;SDS011;8142;48.242;11.644;2022-07-21T13:54:50;10.53;;;9.50;;
16075;SDS011;8142;48.242;11.644;2022-07-21T13:57:16;13.80;;;10.27;;
16075;SDS011;8142;48.242;11.644;2022-07-21T13:59:42;11.73;;;9.77;;
16075;SDS011;8142;48.242;11.644;2022-07-21T14:02:08;12.33;;;9.93;;
16075;SDS011;8142;48.242;11.644;2022-07-21T14:04:34;11.17;;;9.93;;
16075;SDS011;8142;48.242;11.644;2022-07-21T14:07:00;10.90;;;9.80;;
16075;SDS011;8142;48.242;11.644;2022-07-21T14:09:26;12.43;;;10.17;;
16075;SDS011;8142;48.242;11.644;2022-07-21T14:11:51;12.67;;;9.70;;
16075;SDS011;8142;48.242;11.644;2022-07-21T14:14:17;11.60;;;9.60;;
16075;SDS011;8142;48.242;11.644;2022-07-21T14:16:47;11.20;;;9.63;;
16075;SDS011;8142;48.242;11.644;2022-07-21T14:19:14;10.23;;;9.13;;
16075;SDS011;8142;48.242;11.644;2022-07-21T14:21:43;12.10;;;9.83;;
16075;SDS011;8142;48.242;11.644;2022-07-21T14:24:10;14.20;;;9.60;;
16075;SDS011;8142;48.242;11.644;2022-07-21T14:26:55;11.30;;;9.83;;
16075;SDS011;8142;48.242;11.644;2022-07-21T14:29:21;10.37;;;9.23;;
16075;SDS011;8142;48.242;11.644;2022-07-21T14:31:47;11.70;;;10.33;;
16075;SDS011;8142;48.242;11.644;2022-07-21T14:34:14;12.20;;;10.10;;
16075;SDS011;8142;48.242;11.644;2022-07-21T14:36:43;11.20;;;9.30;;
16075;SDS011;8142;48.242;11.644;2022-07-21T14:39:10;12.03;;;10.00;;
16075;SDS011;8142;48.242;11.644;2022-07-21T14:41:36;10.70;;;9.60;;
16075;SDS011;8142;48.242;11.644;2022-07-21T14:44:01;13.33;;;10.37;;
16075;SDS011;8142;48.242;11.644;2022-07-21T14:46:27;11.40;;;9.67;;
16075;SDS011;8142;48.242;11.644;2022-07-21T14:48:53;12.60;;;9.47;;
16075;SDS011;8142;48.242;11.644;2022-07-21T14:51:19;10.70;;;9.60;;
16075;SDS011;8142;48.242;11.644;2022-07-21T14:53:45;10.70;;;9.40;;
16075;SDS011;8142;48.242;11.644;2022-07-21T14:56:12;11.10;;;10.00;;
16075;SDS011;8142;48.242;11.644;2022-07-21T14:58:38;11.43;;;10.10;;
16075;SDS011;8142;48.242;11.644;2022-07-21T15:01:03;11.77;;;9.83;;
16075;SDS011;8142;48.242;11.644;2022-07-21T15:03:29;12.20;;;10.70;;
16075;SDS011;8142;48.242;11.644;2022-07-21T15:05:55;12.03;;;10.20;;
16075;SDS011;8142;48.242;11.644;2022-07-21T15:08:21;13.67;;;11.20;;
16075;SDS011;8142;48.242;11.644;2022-07-21T15:10:47;12.47;;;10.60;;
16075;SDS011;8142;48.242;11.644;2022-07-21T15:13:14;11.73;;;10.20;;
16075;SDS011;8142;48.242;11.644;2022-07-21T15:15:41;13.70;;;10.63;;